Time;durP1;ratioP1;P1;durP2;ratioP2;P2;SDS_P1;SDS_P2;PMS_P1;PMS_P2;Temp;Humidity;BMP_temperature;BMP_pressure;BME280_temperature;BME280_humidity;BME280_pressure;Samples;Min_cycle;Max_cycle;Signal;HPM_P1;HPM_P2
2022/05/03 00:00:18;;;;;;;;;;;23.50;40.60;;;;;;1562828;75;1109;-60
2022/05/03 00:02:26;;;;;;;;;;;23.60;40.60;;;;;;1565430;75;649;-59
2022/05/03 00:04:32;;;;;;;;;;;23.60;40.60;;;;;;1561391;75;1942;-60
2022/05/03 00:06:51;;;;;;;;;;;23.60;40.60;;;;;;1562368;74;738;-59
2022/05/03 00:08:53;;;;;;;;;;;23.60;40.60;;;;;;1518408;78;938;-62
2022/05/03 00:11:00;;;;;;;;;;;23.50;40.70;;;;;;1552668;75;1110;-60
2022/05/03 00:13:06;;;;;;;;;;;23.50;40.60;;;;;;1589376;75;684;-59
2022/05/03 00:15:08;;;;;;;;;;;23.50;40.60;;;;;;1589855;75;759;-58
2022/05/03 00:17:10;;;;;;;;;;;23.50;40.60;;;;;;1589932;75;665;-58
2022/05/03 00:19:12;;;;;;;;;;;23.50;40.60;;;;;;1574810;74;1702;-59
2022/05/03 00:21:14;;;;;;;;;;;23.40;40.50;;;;;;1578163;75;681;-59
2022/05/03 00:23:16;;;;;;;;;;;23.50;40.60;;;;;;1579181;75;665;-59
2022/05/03 00:25:18;;;;;;;;;;;23.50;40.60;;;;;;1580077;75;1946;-59
2022/05/03 00:27:19;;;;;;;;;;;23.50;40.60;;;;;;1562784;75;697;-59
2022/05/03 00:29:21;;;;;;;;;;;23.50;40.60;;;;;;1568822;75;1183;-59
2022/05/03 00:31:24;;;;;;;;;;;23.50;40.50;;;;;;1565408;75;582;-59
2022/05/03 00:33:27;;;;;;;;;;;23.40;40.50;;;;;;1572573;75;1728;-59
2022/05/03 00:35:29;;;;;;;;;;;23.50;40.50;;;;;;1570753;75;708;-60
2022/05/03 00:37:30;;;;;;;;;;;23.50;40.60;;;;;;1566633;75;777;-59
2022/05/03 00:39:32;;;;;;;;;;;23.50;40.50;;;;;;1589890;74;1131;-58
2022/05/03 00:41:42;;;;;;;;;;;23.40;40.50;;;;;;1590029;74;720;-60
2022/05/03 00:43:45;;;;;;;;;;;23.50;40.50;;;;;;1589902;74;624;-59
2022/05/03 00:45:51;;;;;;;;;;;23.50;40.60;;;;;;1564385;74;1931;-60
2022/05/03 00:47:54;;;;;;;;;;;23.50;40.60;;;;;;1576092;75;1529;-59
2022/05/03 00:49:57;;;;;;;;;;;23.40;40.50;;;;;;1573860;75;1141;-59
2022/05/03 00:52:07;;;;;;;;;;;23.50;40.60;;;;;;1569643;75;709;-59
2022/05/03 00:54:13;;;;;;;;;;;23.40;40.40;;;;;;1562807;75;744;-59
2022/05/03 00:56:19;;;;;;;;;;;23.50;40.60;;;;;;1562543;75;2022;-59
2022/05/03 00:58:39;;;;;;;;;;;23.50;40.50;;;;;;1553206;75;1859;-59
2022/05/03 01:00:43;;;;;;;;;;;23.50;40.60;;;;;;1562763;75;1671;-60
2022/05/03 01:03:03;;;;;;;;;;;23.40;40.50;;;;;;1563330;75;1838;-59
2022/05/03 01:05:12;;;;;;;;;;;23.50;40.50;;;;;;1579109;75;1934;-60
2022/05/03 01:07:21;;;;;;;;;;;23.40;40.50;;;;;;1589338;71;229589;-68
2022/05/03 01:09:28;;;;;;;;;;;23.50;40.60;;;;;;1601160;74;483;-67
2022/05/03 01:11:44;;;;;;;;;;;23.50;40.50;;;;;;1601088;74;1843;-67
2022/05/03 01:13:50;;;;;;;;;;;23.40;40.50;;;;;;1598548;74;1397;-67
2022/05/03 01:15:56;;;;;;;;;;;23.50;40.60;;;;;;1577631;74;2060;-67
2022/05/03 01:18:06;;;;;;;;;;;23.50;40.60;;;;;;1586802;74;2099;-67
2022/05/03 01:20:08;;;;;;;;;;;23.50;40.60;;;;;;1600895;74;738;-65
2022/05/03 01:22:20;;;;;;;;;;;23.40;40.50;;;;;;1599903;74;717;-67
2022/05/03 01:24:33;;;;;;;;;;;23.40;40.50;;;;;;1601003;74;1945;-67
2022/05/03 01:26:53;;;;;;;;;;;23.40;40.50;;;;;;1580278;74;1875;-67
2022/05/03 01:28:56;;;;;;;;;;;23.40;40.50;;;;;;1581661;74;1326;-68
2022/05/03 01:30:59;;;;;;;;;;;23.40;40.50;;;;;;1573499;75;713;-68
2022/05/03 01:33:08;;;;;;;;;;;23.40;40.50;;;;;;1573100;74;1194;-67
2022/05/03 01:35:10;;;;;;;;;;;23.40;40.50;;;;;;1584301;74;712;-68
2022/05/03 01:37:22;;;;;;;;;;;23.40;40.50;;;;;;1594004;74;1124;-67
2022/05/03 01:39:28;;;;;;;;;;;23.40;40.50;;;;;;1593328;74;1822;-68
2022/05/03 01:41:44;;;;;;;;;;;23.40;40.50;;;;;;1594284;74;739;-68
2022/05/03 01:44:04;;;;;;;;;;;23.40;40.50;;;;;;1589526;74;1880;-68
2022/05/03 01:46:06;;;;;;;;;;;23.40;40.50;;;;;;1581196;74;672;-69
2022/05/03 01:48:16;;;;;;;;;;;23.40;40.50;;;;;;1573098;74;1137;-69
2022/05/03 01:50:36;;;;;;;;;;;23.40;40.50;;;;;;1595337;74;1965;-68
2022/05/03 01:52:48;;;;;;;;;;;23.30;40.50;;;;;;1598826;74;810;-68
2022/05/03 01:55:10;;;;;;;;;;;23.30;40.50;;;;;;1597918;73;1006;-67
2022/05/03 01:57:22;;;;;;;;;;;23.30;40.50;;;;;;1517368;77;1699;-69
2022/05/03 01:59:28;;;;;;;;;;;23.30;40.50;;;;;;1514824;78;749;-68
2022/05/03 02:01:32;;;;;;;;;;;23.30;40.60;;;;;;1515047;77;759;-69
2022/05/03 02:03:47;;;;;;;;;;;23.30;40.50;;;;;;1587967;74;1986;-68
2022/05/03 02:05:51;;;;;;;;;;;23.30;40.60;;;;;;1600066;74;1964;-67
2022/05/03 02:07:56;;;;;;;;;;;23.30;40.60;;;;;;1599890;74;1249;-68
2022/05/03 02:10:09;;;;;;;;;;;23.30;40.50;;;;;;1597583;74;1539;-68
2022/05/03 02:12:12;;;;;;;;;;;23.30;40.60;;;;;;1595614;74;698;-67
2022/05/03 02:16:42;;;;;;;;;;;23.30;40.50;;;;;;1598250;74;1621;-64
2022/05/03 02:18:46;;;;;;;;;;;23.30;40.50;;;;;;1592940;74;1082;-66
2022/05/03 02:21:01;;;;;;;;;;;23.30;40.50;;;;;;1599731;74;1931;-68
2022/05/03 02:23:21;;;;;;;;;;;23.30;40.50;;;;;;1595916;74;707;-67
2022/05/03 02:25:25;;;;;;;;;;;23.30;40.60;;;;;;1592475;74;1928;-67
2022/05/03 02:27:27;;;;;;;;;;;23.30;40.50;;;;;;1598748;74;1793;-65
2022/05/03 02:29:32;;;;;;;;;;;23.30;40.60;;;;;;1597595;74;640;-68
2022/05/03 02:31:54;;;;;;;;;;;23.30;40.60;;;;;;1595791;74;713;-68
2022/05/03 02:33:56;;;;;;;;;;;23.30;40.60;;;;;;1599656;73;703;-67
2022/05/03 02:35:59;;;;;;;;;;;23.40;40.50;;;;;;1600447;74;764;-68
2022/05/03 02:38:06;;;;;;;;;;;23.40;40.50;;;;;;1601085;74;1130;-67
2022/05/03 02:40:09;;;;;;;;;;;23.50;40.40;;;;;;1585471;74;687;-67
2022/05/03 02:42:11;;;;;;;;;;;23.60;40.30;;;;;;1595046;74;756;-68
2022/05/03 02:44:13;;;;;;;;;;;23.70;40.20;;;;;;1567353;75;741;-67
2022/05/03 02:46:32;;;;;;;;;;;23.70;40.30;;;;;;1594460;74;1898;-67
2022/05/03 02:48:35;;;;;;;;;;;23.70;40.30;;;;;;1595139;74;1124;-68
2022/05/03 02:50:39;;;;;;;;;;;23.70;40.40;;;;;;1593982;74;1595;-68
2022/05/03 02:52:42;;;;;;;;;;;23.60;40.60;;;;;;1593521;74;1910;-68
2022/05/03 02:55:04;;;;;;;;;;;23.60;40.90;;;;;;1593383;74;699;-68
2022/05/03 02:57:20;;;;;;;;;;;23.60;41.50;;;;;;1597986;74;1159;-66
2022/05/03 03:01:47;;;;;;;;;;;23.60;41.90;;;;;;1595966;74;776;-65
2022/05/03 03:01:50;;;;;;;;;;;23.50;42.10;;;;;;1591873;74;1939;-66
2022/05/03 03:03:53;;;;;;;;;;;23.40;42.00;;;;;;1591435;74;711;-67
2022/05/03 03:05:57;;;;;;;;;;;23.50;42.10;;;;;;1600649;74;1928;-66
2022/05/03 03:08:00;;;;;;;;;;;23.50;42.10;;;;;;1596226;74;1776;-67
2022/05/03 03:10:05;;;;;;;;;;;23.50;42.30;;;;;;1589852;74;1293;-67
2022/05/03 03:12:12;;;;;;;;;;;23.60;42.20;;;;;;1595710;74;727;-67
2022/05/03 03:14:32;;;;;;;;;;;23.50;42.30;;;;;;1597684;74;1973;-67
2022/05/03 03:16:35;;;;;;;;;;;23.60;42.60;;;;;;1598852;74;744;-68
2022/05/03 03:18:36;;;;;;;;;;;23.60;42.60;;;;;;1596092;74;1127;-67
2022/05/03 03:20:38;;;;;;;;;;;23.60;42.50;;;;;;1596925;74;1598;-67
2022/05/03 03:22:41;;;;;;;;;;;23.60;42.70;;;;;;1599664;74;689;-65
2022/05/03 03:24:43;;;;;;;;;;;23.60;42.80;;;;;;1600488;74;1917;-68
2022/05/03 03:26:44;;;;;;;;;;;23.60;42.60;;;;;;1588929;74;730;-67
2022/05/03 03:28:46;;;;;;;;;;;23.60;42.70;;;;;;1599113;74;1179;-69
2022/05/03 03:30:50;;;;;;;;;;;23.70;42.70;;;;;;1599591;74;634;-67
2022/05/03 03:32:52;;;;;;;;;;;23.70;42.70;;;;;;1598850;74;1501;-67
2022/05/03 03:34:55;;;;;;;;;;;23.70;42.70;;;;;;1600043;74;1510;-67
2022/05/03 03:37:01;;;;;;;;;;;23.80;42.70;;;;;;1601362;74;1127;-66
2022/05/03 03:39:03;;;;;;;;;;;23.70;42.60;;;;;;1599139;74;811;-67
2022/05/03 03:41:04;;;;;;;;;;;23.80;42.60;;;;;;1600735;74;732;-67
2022/05/03 03:43:06;;;;;;;;;;;23.70;42.50;;;;;;1596220;74;724;-69
2022/05/03 03:45:10;;;;;;;;;;;23.70;42.60;;;;;;1600004;74;1949;-67
2022/05/03 03:47:12;;;;;;;;;;;23.80;42.50;;;;;;1597967;74;1139;-67
2022/05/03 03:49:14;;;;;;;;;;;23.70;42.40;;;;;;1596981;74;1564;-67
2022/05/03 03:51:16;;;;;;;;;;;23.80;42.30;;;;;;1598444;74;855;-67
2022/05/03 03:53:17;;;;;;;;;;;23.80;42.30;;;;;;1599787;74;750;-67
2022/05/03 03:55:19;;;;;;;;;;;23.80;42.40;;;;;;1599253;74;664;-67
2022/05/03 03:57:21;;;;;;;;;;;23.90;42.60;;;;;;1597194;74;1151;-67
2022/05/03 03:59:24;;;;;;;;;;;23.90;42.60;;;;;;1600277;74;694;-67
2022/05/03 04:01:26;;;;;;;;;;;23.80;42.60;;;;;;1600207;74;762;-67
2022/05/03 04:03:28;;;;;;;;;;;23.80;42.60;;;;;;1594129;74;1229;-67
2022/05/03 04:05:30;;;;;;;;;;;23.80;42.70;;;;;;1593011;74;1918;-66
2022/05/03 04:07:32;;;;;;;;;;;23.80;42.60;;;;;;1599899;74;1150;-69
2022/05/03 04:09:34;;;;;;;;;;;23.80;42.60;;;;;;1595548;74;773;-67
2022/05/03 04:11:44;;;;;;;;;;;23.80;42.70;;;;;;1599984;74;752;-67
2022/05/03 04:13:46;;;;;;;;;;;23.90;42.80;;;;;;1574567;74;640;-67
2022/05/03 04:15:48;;;;;;;;;;;23.90;42.80;;;;;;1573573;75;675;-66
2022/05/03 04:17:50;;;;;;;;;;;23.80;42.80;;;;;;1589470;74;1823;-67
2022/05/03 04:19:51;;;;;;;;;;;23.80;42.80;;;;;;1573381;75;651;-67
2022/05/03 04:21:53;;;;;;;;;;;23.80;42.80;;;;;;1573545;75;701;-68
2022/05/03 04:23:55;;;;;;;;;;;23.80;42.90;;;;;;1596661;74;716;-68
2022/05/03 04:25:57;;;;;;;;;;;23.90;43.00;;;;;;1600149;74;1922;-68
2022/05/03 04:27:59;;;;;;;;;;;23.90;42.90;;;;;;1593963;74;1143;-67
2022/05/03 04:30:01;;;;;;;;;;;23.90;43.00;;;;;;1589252;74;728;-67
2022/05/03 04:32:03;;;;;;;;;;;23.80;43.00;;;;;;1595118;74;1570;-68
2022/05/03 04:34:05;;;;;;;;;;;23.80;43.10;;;;;;1598740;74;767;-66
2022/05/03 04:36:07;;;;;;;;;;;23.90;43.00;;;;;;1576970;74;731;-67
2022/05/03 04:38:09;;;;;;;;;;;23.80;43.00;;;;;;1594123;74;1169;-67
2022/05/03 04:40:11;;;;;;;;;;;23.90;43.10;;;;;;1592095;74;781;-67
2022/05/03 04:42:13;;;;;;;;;;;23.90;43.30;;;;;;1592821;74;698;-68
2022/05/03 04:44:15;;;;;;;;;;;23.90;43.10;;;;;;1589301;73;604;-67
2022/05/03 04:46:17;;;;;;;;;;;23.90;43.10;;;;;;1591720;74;1936;-68
2022/05/03 04:48:19;;;;;;;;;;;23.90;43.10;;;;;;1580407;74;1120;-65
2022/05/03 04:50:21;;;;;;;;;;;23.90;43.40;;;;;;1595018;74;744;-67
2022/05/03 04:52:22;;;;;;;;;;;23.90;43.50;;;;;;1600966;74;685;-63
2022/05/03 04:54:24;;;;;;;;;;;23.90;43.50;;;;;;1600972;74;699;-64
2022/05/03 04:56:26;;;;;;;;;;;24.00;43.10;;;;;;1600450;74;656;-64
2022/05/03 04:58:28;;;;;;;;;;;24.10;42.50;;;;;;1600923;74;1115;-64
2022/05/03 05:00:30;;;;;;;;;;;24.30;42.00;;;;;;1575581;73;1665;-65
2022/05/03 05:02:32;;;;;;;;;;;24.40;41.70;;;;;;1576438;74;679;-64
2022/05/03 05:04:34;;;;;;;;;;;24.40;41.50;;;;;;1600563;74;747;-64
2022/05/03 05:06:36;;;;;;;;;;;24.40;41.30;;;;;;1600821;74;1940;-64
2022/05/03 05:08:41;;;;;;;;;;;24.40;41.20;;;;;;1584899;74;1117;-65
2022/05/03 05:10:43;;;;;;;;;;;24.30;41.10;;;;;;1571970;75;803;-64
2022/05/03 05:12:45;;;;;;;;;;;24.40;41.20;;;;;;1577059;74;1579;-64
2022/05/03 05:14:47;;;;;;;;;;;24.30;41.10;;;;;;1573609;74;553;-66
2022/05/03 05:16:49;;;;;;;;;;;24.30;41.10;;;;;;1572659;75;698;-64
2022/05/03 05:18:51;;;;;;;;;;;24.20;41.00;;;;;;1575062;74;734;-64
2022/05/03 05:20:53;;;;;;;;;;;24.30;41.00;;;;;;1599921;74;706;-65
2022/05/03 05:22:55;;;;;;;;;;;24.30;41.00;;;;;;1597407;74;751;-65
2022/05/03 05:24:57;;;;;;;;;;;24.30;40.90;;;;;;1594102;74;681;-63
2022/05/03 05:26:58;;;;;;;;;;;24.30;41.00;;;;;;1596584;74;1925;-65
2022/05/03 05:29:00;;;;;;;;;;;24.20;40.70;;;;;;1573612;74;671;-65
2022/05/03 05:31:05;;;;;;;;;;;24.30;40.80;;;;;;1592451;74;694;-67
2022/05/03 05:33:06;;;;;;;;;;;24.30;40.80;;;;;;1600446;74;1186;-66
2022/05/03 05:35:08;;;;;;;;;;;24.40;40.80;;;;;;1599831;74;672;-66
2022/05/03 05:37:10;;;;;;;;;;;24.30;40.90;;;;;;1582627;74;1193;-65
2022/05/03 05:39:12;;;;;;;;;;;24.20;40.90;;;;;;1579788;74;797;-66
2022/05/03 05:41:14;;;;;;;;;;;24.30;41.00;;;;;;1593235;74;1577;-65
2022/05/03 05:43:16;;;;;;;;;;;24.30;41.10;;;;;;1574521;74;742;-64
2022/05/03 05:45:18;;;;;;;;;;;24.40;41.00;;;;;;1595890;74;663;-63
2022/05/03 05:47:20;;;;;;;;;;;24.40;40.70;;;;;;1581767;74;1948;-64
2022/05/03 05:49:22;;;;;;;;;;;24.40;40.70;;;;;;1573461;75;756;-63
2022/05/03 05:51:24;;;;;;;;;;;24.40;40.70;;;;;;1574818;74;645;-62
2022/05/03 05:53:32;;;;;;;;;;;24.30;40.60;;;;;;1580115;74;730;-65
2022/05/03 05:55:35;;;;;;;;;;;24.30;40.70;;;;;;1579646;74;1609;-63
2022/05/03 05:57:37;;;;;;;;;;;24.40;40.60;;;;;;1573460;74;1160;-64
2022/05/03 05:59:38;;;;;;;;;;;24.30;40.50;;;;;;1573370;75;661;-64
2022/05/03 06:01:41;;;;;;;;;;;24.30;40.50;;;;;;1594839;74;759;-62
2022/05/03 06:03:43;;;;;;;;;;;24.20;40.50;;;;;;1582132;74;740;-64
2022/05/03 06:05:45;;;;;;;;;;;24.30;40.50;;;;;;1597197;74;1908;-64
2022/05/03 06:07:47;;;;;;;;;;;24.20;40.40;;;;;;1573536;74;1180;-63
2022/05/03 06:09:50;;;;;;;;;;;24.20;40.40;;;;;;1575560;74;1448;-63
2022/05/03 06:11:52;;;;;;;;;;;24.20;40.40;;;;;;1587218;74;486;-63
2022/05/03 06:13:54;;;;;;;;;;;24.10;40.50;;;;;;1601024;74;641;-63
2022/05/03 06:15:57;;;;;;;;;;;24.20;40.40;;;;;;1597921;74;676;-63
2022/05/03 06:17:59;;;;;;;;;;;24.20;40.50;;;;;;1564970;76;1173;-63
2022/05/03 06:20:01;;;;;;;;;;;24.20;40.40;;;;;;1595453;74;762;-63
2022/05/03 06:22:03;;;;;;;;;;;24.20;40.40;;;;;;1596072;74;682;-61
2022/05/03 06:24:06;;;;;;;;;;;24.20;40.30;;;;;;1596223;74;1591;-63
2022/05/03 06:26:09;;;;;;;;;;;24.20;40.20;;;;;;1591151;74;1921;-62
2022/05/03 06:28:11;;;;;;;;;;;24.30;40.30;;;;;;1591755;74;1155;-63
2022/05/03 06:30:13;;;;;;;;;;;24.30;40.30;;;;;;1595899;74;741;-63
2022/05/03 06:32:15;;;;;;;;;;;24.30;40.20;;;;;;1596862;74;723;-63
2022/05/03 06:34:17;;;;;;;;;;;24.20;40.10;;;;;;1591167;74;707;-62
2022/05/03 06:36:19;;;;;;;;;;;24.20;40.00;;;;;;1595601;74;717;-64
2022/05/03 06:38:21;;;;;;;;;;;24.20;40.00;;;;;;1594902;74;1654;-62
2022/05/03 06:40:22;;;;;;;;;;;24.30;40.00;;;;;;1596059;74;708;-62
2022/05/03 06:42:24;;;;;;;;;;;24.40;40.00;;;;;;1594841;74;743;-63
2022/05/03 06:44:26;;;;;;;;;;;24.30;39.80;;;;;;1596826;74;738;-64
2022/05/03 06:46:28;;;;;;;;;;;24.30;39.90;;;;;;1595685;74;1944;-63
2022/05/03 06:48:30;;;;;;;;;;;24.30;39.70;;;;;;1587699;74;1150;-64
2022/05/03 06:50:32;;;;;;;;;;;24.30;39.70;;;;;;1590607;73;673;-64
2022/05/03 06:52:55;;;;;;;;;;;24.40;39.70;;;;;;1597423;74;1322;-62
2022/05/03 06:54:57;;;;;;;;;;;24.40;39.60;;;;;;1597055;74;709;-63
2022/05/03 06:56:59;;;;;;;;;;;24.50;39.70;;;;;;1592632;73;1135;-65
2022/05/03 06:59:01;;;;;;;;;;;24.40;39.50;;;;;;1596594;74;714;-63
2022/05/03 07:01:10;;;;;;;;;;;24.50;39.60;;;;;;1594295;74;687;-63
2022/05/03 07:03:12;;;;;;;;;;;24.50;39.50;;;;;;1591728;74;1936;-63
2022/05/03 07:05:14;;;;;;;;;;;24.50;39.40;;;;;;1600987;74;1342;-63
2022/05/03 07:07:16;;;;;;;;;;;24.40;39.40;;;;;;1586541;74;1950;-64
2022/05/03 07:09:18;;;;;;;;;;;24.50;39.40;;;;;;1589936;74;596;-64
2022/05/03 07:11:20;;;;;;;;;;;24.50;39.40;;;;;;1581470;74;784;-63
2022/05/03 07:13:25;;;;;;;;;;;24.50;39.30;;;;;;1586343;74;668;-63
2022/05/03 07:15:27;;;;;;;;;;;24.60;39.30;;;;;;1579995;73;680;-63
2022/05/03 07:24:29;;;;;;;;;;;24.60;39.20;;;;;;1575723;74;1611;-63
2022/05/03 07:26:31;;;;;;;;;;;24.60;39.20;;;;;;1585277;74;1921;-63
2022/05/03 07:28:33;;;;;;;;;;;24.60;39.10;;;;;;1575935;74;1136;-63
2022/05/03 07:30:36;;;;;;;;;;;24.60;39.00;;;;;;1585877;74;940;-62
2022/05/03 07:32:38;;;;;;;;;;;24.50;39.10;;;;;;1599181;74;694;-65
2022/05/03 07:34:40;;;;;;;;;;;24.70;39.20;;;;;;1599849;73;1565;-62
2022/05/03 07:36:42;;;;;;;;;;;24.70;39.20;;;;;;1597668;73;753;-62
2022/05/03 07:38:45;;;;;;;;;;;24.70;39.20;;;;;;1600652;74;1167;-62
2022/05/03 07:40:47;;;;;;;;;;;24.60;38.90;;;;;;1596002;74;656;-64
2022/05/03 07:42:49;;;;;;;;;;;24.70;39.00;;;;;;1599924;74;723;-62
2022/05/03 07:44:51;;;;;;;;;;;24.70;38.90;;;;;;1597087;74;723;-63
2022/05/03 07:46:53;;;;;;;;;;;24.60;38.80;;;;;;1598176;74;1929;-64
2022/05/03 07:48:56;;;;;;;;;;;24.70;38.90;;;;;;1597453;74;1583;-64
2022/05/03 07:50:58;;;;;;;;;;;24.70;38.90;;;;;;1599273;74;657;-63
2022/05/03 07:52:59;;;;;;;;;;;24.70;38.90;;;;;;1600285;74;620;-63
2022/05/03 07:55:02;;;;;;;;;;;24.70;38.90;;;;;;1590273;74;670;-64
2022/05/03 07:57:04;;;;;;;;;;;24.70;38.90;;;;;;1599565;74;1153;-64
2022/05/03 07:59:09;;;;;;;;;;;24.60;38.80;;;;;;1599987;74;744;-63
2022/05/03 08:01:10;;;;;;;;;;;24.70;38.80;;;;;;1594721;74;1679;-65
2022/05/03 08:03:13;;;;;;;;;;;24.70;38.80;;;;;;1596109;74;1361;-63
2022/05/03 08:05:16;;;;;;;;;;;24.70;38.80;;;;;;1595457;74;747;-64
2022/05/03 08:07:18;;;;;;;;;;;24.80;38.80;;;;;;1600129;74;1911;-63
2022/05/03 08:09:20;;;;;;;;;;;24.70;38.80;;;;;;1599881;74;741;-63
2022/05/03 08:11:22;;;;;;;;;;;24.80;38.80;;;;;;1595972;74;796;-64
2022/05/03 08:13:24;;;;;;;;;;;24.80;38.70;;;;;;1596307;74;692;-62
2022/05/03 08:15:26;;;;;;;;;;;24.80;38.80;;;;;;1596594;74;724;-63
2022/05/03 08:17:28;;;;;;;;;;;24.60;38.60;;;;;;1597856;74;1682;-65
2022/05/03 08:19:30;;;;;;;;;;;24.70;38.80;;;;;;1600311;74;680;-64
2022/05/03 08:21:36;;;;;;;;;;;24.60;38.90;;;;;;1592446;74;590;-63
2022/05/03 08:23:35;;;;;;;;;;;24.70;39.20;;;;;;1587948;74;1302;-63
2022/05/03 08:25:37;;;;;;;;;;;24.60;39.10;;;;;;1574958;73;777;-63
2022/05/03 08:27:41;;;;;;;;;;;24.60;39.20;;;;;;1589941;74;1941;-65
2022/05/03 08:29:43;;;;;;;;;;;24.60;39.00;;;;;;1596708;74;1598;-65
2022/05/03 08:31:44;;;;;;;;;;;24.60;37.60;;;;;;1599607;74;749;-65
2022/05/03 08:33:47;;;;;;;;;;;24.60;38.30;;;;;;1598501;74;744;-67
2022/05/03 08:35:49;;;;;;;;;;;24.60;38.30;;;;;;1581269;74;698;-63
2022/05/03 08:42:31;;;;;;;;;;;24.60;38.00;;;;;;1586599;74;1635;-60
2022/05/03 08:44:33;;;;;;;;;;;24.60;38.00;;;;;;1579212;74;1581;-62
2022/05/03 08:46:36;;;;;;;;;;;24.60;38.10;;;;;;1596907;74;1934;-61
2022/05/03 08:48:40;;;;;;;;;;;24.60;38.00;;;;;;1592421;74;1126;-62
2022/05/03 08:50:42;;;;;;;;;;;24.70;38.10;;;;;;1590733;74;1720;-63
2022/05/03 08:52:50;;;;;;;;;;;24.70;38.30;;;;;;1586978;74;690;-61
2022/05/03 08:54:52;;;;;;;;;;;24.70;38.00;;;;;;1578612;74;759;-63
2022/05/03 08:56:55;;;;;;;;;;;24.70;38.10;;;;;;1582077;74;1163;-60
2022/05/03 08:58:57;;;;;;;;;;;24.70;38.00;;;;;;1595288;74;1619;-61
2022/05/03 09:00:59;;;;;;;;;;;24.70;38.10;;;;;;1598076;74;690;-61
2022/05/03 09:03:01;;;;;;;;;;;24.60;37.90;;;;;;1595072;73;646;-63
2022/05/03 09:05:02;;;;;;;;;;;24.60;37.80;;;;;;1598124;74;703;-61
2022/05/03 09:07:12;;;;;;;;;;;24.60;37.80;;;;;;1586271;74;1926;-60
2022/05/03 09:09:14;;;;;;;;;;;24.70;37.70;;;;;;1578267;74;1461;-61
2022/05/03 09:11:16;;;;;;;;;;;24.70;37.70;;;;;;1586718;74;697;-60
2022/05/03 09:13:19;;;;;;;;;;;24.70;35.80;;;;;;1590384;74;1469;-62
2022/05/03 09:15:30;;;;;;;;;;;24.60;37.00;;;;;;1592049;74;687;-61
2022/05/03 09:17:36;;;;;;;;;;;24.60;37.00;;;;;;1592095;74;1157;-64
2022/05/03 09:19:38;;;;;;;;;;;24.60;36.30;;;;;;1583354;74;698;-60
2022/05/03 09:24:03;;;;;;;;;;;24.60;36.90;;;;;;1579118;74;1648;-65
2022/05/03 09:26:16;;;;;;;;;;;24.60;34.50;;;;;;1598356;74;1547;-64
2022/05/03 09:28:19;;;;;;;;;;;24.70;35.90;;;;;;1581934;74;1931;-64
2022/05/03 09:30:21;;;;;;;;;;;24.60;36.60;;;;;;1584541;74;691;-65
2022/05/03 09:32:38;;;;;;;;;;;24.60;34.20;;;;;;1577074;74;765;-63
2022/05/03 09:34:41;;;;;;;;;;;24.50;36.10;;;;;;1575530;74;678;-65
2022/05/03 09:36:49;;;;;;;;;;;24.40;35.00;;;;;;1575809;74;771;-64
2022/05/03 09:38:51;;;;;;;;;;;24.40;35.50;;;;;;1585259;74;1144;-64
2022/05/03 09:40:54;;;;;;;;;;;24.30;35.70;;;;;;1598328;74;1627;-64
2022/05/03 09:42:56;;;;;;;;;;;24.30;35.60;;;;;;1595672;74;735;-66
2022/05/03 09:45:00;;;;;;;;;;;24.20;35.60;;;;;;1595978;73;769;-63
2022/05/03 09:47:02;;;;;;;;;;;24.20;35.70;;;;;;1594753;74;1934;-66
2022/05/03 09:49:04;;;;;;;;;;;24.20;35.70;;;;;;1578564;74;710;-63
2022/05/03 09:51:10;;;;;;;;;;;24.20;35.40;;;;;;1588731;74;674;-63
2022/05/03 09:53:16;;;;;;;;;;;24.20;35.40;;;;;;1572042;74;1631;-63
2022/05/03 09:55:17;;;;;;;;;;;24.10;35.00;;;;;;1589372;74;1630;-63
2022/05/03 09:57:22;;;;;;;;;;;24.10;35.00;;;;;;1553671;76;1200;-64
2022/05/03 09:59:26;;;;;;;;;;;24.10;35.00;;;;;;1596681;74;699;-63
2022/05/03 10:01:28;;;;;;;;;;;24.00;35.00;;;;;;1601623;74;711;-64
2022/05/03 10:03:29;;;;;;;;;;;24.10;35.40;;;;;;1598403;74;622;-65
2022/05/03 10:05:31;;;;;;;;;;;24.00;35.40;;;;;;1601103;74;667;-65
2022/05/03 10:07:34;;;;;;;;;;;24.00;35.50;;;;;;1599660;74;1936;-65
2022/05/03 10:09:35;;;;;;;;;;;24.00;35.60;;;;;;1596528;74;1322;-63
2022/05/03 10:11:37;;;;;;;;;;;24.00;35.60;;;;;;1602003;74;725;-63
2022/05/03 10:13:39;;;;;;;;;;;24.00;35.70;;;;;;1600899;74;790;-65
2022/05/03 10:20:36;;;;;;;;;;;23.90;35.90;;;;;;1531717;77;1019;-64
2022/05/03 10:22:20;;;;;;;;;;;23.90;35.90;;;;;;1574936;74;1691;-64
2022/05/03 10:24:23;;;;;;;;;;;24.00;35.90;;;;;;1582456;74;673;-63
2022/05/03 10:26:25;;;;;;;;;;;24.00;36.00;;;;;;1584887;74;732;-64
2022/05/03 10:28:29;;;;;;;;;;;23.90;36.00;;;;;;1565664;76;1942;-65
2022/05/03 10:30:34;;;;;;;;;;;24.00;35.90;;;;;;1574005;74;1751;-63
2022/05/03 10:32:35;;;;;;;;;;;24.00;35.80;;;;;;1584399;74;1515;-63
2022/05/03 10:34:47;;;;;;;;;;;24.00;35.80;;;;;;1577002;73;700;-63
2022/05/03 10:36:49;;;;;;;;;;;24.00;35.80;;;;;;1586133;74;1559;-67
2022/05/03 10:38:51;;;;;;;;;;;24.00;35.90;;;;;;1586251;74;1105;-67
2022/05/03 10:40:53;;;;;;;;;;;24.00;36.00;;;;;;1585111;74;754;-67
2022/05/03 10:43:05;;;;;;;;;;;24.00;35.90;;;;;;1581891;74;762;-68
2022/05/03 10:45:07;;;;;;;;;;;24.10;35.70;;;;;;1598486;74;707;-66
2022/05/03 10:47:10;;;;;;;;;;;24.00;34.70;;;;;;1595846;74;1953;-68
2022/05/03 10:49:15;;;;;;;;;;;24.00;33.40;;;;;;1583397;74;643;-67
2022/05/03 10:51:17;;;;;;;;;;;23.90;34.70;;;;;;1584684;74;1543;-69
2022/05/03 10:53:20;;;;;;;;;;;23.90;34.00;;;;;;1582987;74;788;-66
2022/05/03 10:55:22;;;;;;;;;;;23.80;34.10;;;;;;1582867;74;800;-68
2022/05/03 10:57:24;;;;;;;;;;;23.90;34.30;;;;;;1578951;74;1145;-67
2022/05/03 10:59:25;;;;;;;;;;;23.80;34.20;;;;;;1583983;74;672;-70
2022/05/03 11:01:27;;;;;;;;;;;23.90;34.90;;;;;;1552861;76;1209;-66
2022/05/03 11:03:30;;;;;;;;;;;23.90;34.70;;;;;;1580258;74;773;-69
2022/05/03 11:05:32;;;;;;;;;;;23.90;35.00;;;;;;1598798;74;1542;-67
2022/05/03 11:07:33;;;;;;;;;;;23.80;34.90;;;;;;1581519;74;1928;-67
2022/05/03 11:09:35;;;;;;;;;;;23.90;34.90;;;;;;1582113;74;779;-67
2022/05/03 11:11:39;;;;;;;;;;;23.90;35.00;;;;;;1580251;74;665;-67
2022/05/03 11:13:41;;;;;;;;;;;24.00;34.90;;;;;;1577006;74;768;-69
2022/05/03 11:16:02;;;;;;;;;;;23.90;34.40;;;;;;1589837;74;799;-67
2022/05/03 11:18:03;;;;;;;;;;;23.80;34.70;;;;;;1590203;74;1144;-67
2022/05/03 11:20:06;;;;;;;;;;;23.90;34.70;;;;;;1589138;74;1424;-68
2022/05/03 11:22:14;;;;;;;;;;;23.90;34.70;;;;;;1587435;74;711;-67
2022/05/03 11:24:23;;;;;;;;;;;23.90;34.70;;;;;;1580293;74;807;-67
2022/05/03 11:26:26;;;;;;;;;;;23.90;35.00;;;;;;1579539;74;717;-66
2022/05/03 11:28:27;;;;;;;;;;;23.80;34.50;;;;;;1586560;74;1952;-67
2022/05/03 11:30:29;;;;;;;;;;;23.80;35.00;;;;;;1577823;74;715;-67
2022/05/03 11:32:32;;;;;;;;;;;23.90;35.20;;;;;;1592529;74;1566;-67
2022/05/03 11:34:34;;;;;;;;;;;23.80;35.10;;;;;;1589996;74;691;-67
2022/05/03 11:36:38;;;;;;;;;;;23.80;35.20;;;;;;1582784;74;738;-67
2022/05/03 11:38:39;;;;;;;;;;;23.80;35.20;;;;;;1587149;74;1108;-69
2022/05/03 11:40:41;;;;;;;;;;;23.90;35.00;;;;;;1592062;74;742;-67
2022/05/03 11:42:44;;;;;;;;;;;23.80;35.20;;;;;;1584084;74;760;-67
2022/05/03 11:44:46;;;;;;;;;;;23.80;35.30;;;;;;1573363;74;807;-67
2022/05/03 11:46:48;;;;;;;;;;;23.80;35.40;;;;;;1585899;74;1198;-67
2022/05/03 11:48:54;;;;;;;;;;;23.80;35.30;;;;;;1589175;74;1944;-66
2022/05/03 11:57:57;;;;;;;;;;;23.70;35.30;;;;;;1583783;74;1679;-67
2022/05/03 11:59:59;;;;;;;;;;;23.80;35.20;;;;;;1584777;74;772;-67
2022/05/03 12:02:20;;;;;;;;;;;23.70;35.30;;;;;;1591430;74;1537;-68
2022/05/03 12:04:22;;;;;;;;;;;23.70;33.90;;;;;;1590028;74;914;-67
2022/05/03 12:06:24;;;;;;;;;;;23.70;35.00;;;;;;1591453;74;771;-66
2022/05/03 12:08:26;;;;;;;;;;;23.70;35.10;;;;;;1584367;74;1942;-67
2022/05/03 12:10:29;;;;;;;;;;;23.70;34.40;;;;;;1575963;74;769;-66
2022/05/03 12:12:45;;;;;;;;;;;23.60;34.60;;;;;;1598283;74;741;-67
2022/05/03 12:14:47;;;;;;;;;;;23.60;34.70;;;;;;1573618;74;1249;-65
2022/05/03 12:16:52;;;;;;;;;;;23.60;34.90;;;;;;1579046;74;745;-68
2022/05/03 12:18:55;;;;;;;;;;;23.70;35.10;;;;;;1579444;74;776;-66
2022/05/03 12:21:00;;;;;;;;;;;23.60;34.90;;;;;;1579889;74;730;-65
2022/05/03 12:23:09;;;;;;;;;;;23.70;34.70;;;;;;1586173;74;630;-66
2022/05/03 12:25:11;;;;;;;;;;;23.60;34.80;;;;;;1575572;74;775;-67
2022/05/03 12:27:13;;;;;;;;;;;23.60;34.90;;;;;;1549973;75;1135;-65
2022/05/03 12:29:15;;;;;;;;;;;23.60;35.00;;;;;;1583898;74;1951;-65
2022/05/03 12:31:17;;;;;;;;;;;23.70;35.00;;;;;;1580970;74;684;-65
2022/05/03 12:33:19;;;;;;;;;;;23.60;34.80;;;;;;1586537;74;735;-65
2022/05/03 12:35:31;;;;;;;;;;;23.60;34.90;;;;;;1591405;74;788;-69
2022/05/03 12:37:33;;;;;;;;;;;23.60;34.20;;;;;;1588212;74;1123;-69
2022/05/03 12:39:35;;;;;;;;;;;23.60;34.70;;;;;;1563012;74;1121;-65
2022/05/03 12:41:37;;;;;;;;;;;23.60;34.80;;;;;;1579458;74;745;-65
2022/05/03 12:43:40;;;;;;;;;;;23.60;34.80;;;;;;1586286;74;1648;-68
2022/05/03 12:45:41;;;;;;;;;;;23.50;34.90;;;;;;1583901;74;820;-65